Time;durP1;ratioP1;P1;durP2;ratioP2;P2;SDS_P1;SDS_P2;PMS_P1;PMS_P2;Temp;Humidity;BMP_temperature;BMP_pressure;BME280_temperature;BME280_humidity;BME280_pressure;Samples;Min_cycle;Max_cycle;Signal;HPM_P1;HPM_P2
2021/01/29 00:00:30;;;;;;;25.52;13.93;;;;;;;-1.62;59.84;94001.50;4119786;28;20136;-70
2021/01/29 00:02:31;;;;;;;21.98;12.60;;;;;;;-1.62;59.65;93997.16;4127770;28;20506;-71
2021/01/29 00:04:33;;;;;;;23.20;13.98;;;;;;;-1.58;59.77;94006.31;4126996;28;20050;-70
2021/01/29 00:06:34;;;;;;;24.15;12.82;;;;;;;-1.60;60.18;94004.78;4119140;28;20058;-71
2021/01/29 00:08:35;;;;;;;24.40;13.82;;;;;;;-1.59;60.22;93994.41;4118479;28;20479;-69
2021/01/29 00:10:37;;;;;;;21.00;12.88;;;;;;;-1.62;60.17;93997.16;4127441;28;20057;-71
2021/01/29 00:12:38;;;;;;;25.38;13.82;;;;;;;-1.61;59.76;94009.09;4128563;28;20549;-70
2021/01/29 00:14:39;;;;;;;20.45;12.68;;;;;;;-1.57;60.72;93999.41;4129163;28;20046;-70
2021/01/29 00:16:41;;;;;;;22.05;13.13;;;;;;;-1.57;60.65;94007.97;4125880;28;20058;-70
2021/01/29 00:18:42;;;;;;;21.13;12.88;;;;;;;-1.54;59.57;94012.06;4117478;28;20060;-70
2021/01/29 00:20:44;;;;;;;21.08;13.45;;;;;;;-1.61;59.85;94009.09;4130163;28;20054;-83
2021/01/29 00:22:47;;;;;;;19.45;13.20;;;;;;;-1.55;60.03;94002.72;4133626;28;20050;-82
2021/01/29 00:24:48;;;;;;;19.67;12.63;;;;;;;-1.47;60.10;94003.03;4132608;28;20046;-83
2021/01/29 00:26:50;;;;;;;20.85;12.68;;;;;;;-1.52;59.27;94000.78;4132744;28;20046;-85
2021/01/29 00:28:52;;;;;;;20.58;12.05;;;;;;;-1.59;59.44;94017.53;4132005;28;20073;-85
2021/01/29 00:30:54;;;;;;;23.60;12.90;;;;;;;-1.60;59.55;93994.50;4131592;28;20046;-82
2021/01/29 00:32:56;;;;;;;21.30;12.80;;;;;;;-1.57;60.10;94010.53;4125689;28;20051;-82
2021/01/29 00:34:58;;;;;;;21.58;12.32;;;;;;;-1.69;59.89;94016.50;4130722;28;20109;-81
2021/01/29 00:36:59;;;;;;;20.40;12.43;;;;;;;-1.88;59.70;94027.97;4133517;28;20050;-83
2021/01/29 00:39:00;;;;;;;22.08;12.60;;;;;;;-1.84;60.15;94020.88;4131287;28;20060;-82
2021/01/29 00:41:01;;;;;;;24.92;12.32;;;;;;;-1.75;60.06;94027.16;4124153;28;20057;-84
2021/01/29 00:43:04;;;;;;;21.65;12.43;;;;;;;-1.72;60.13;94017.53;4134226;28;20096;-84
2021/01/29 00:45:08;;;;;;;21.85;12.02;;;;;;;-1.64;59.78;94017.00;4116307;28;20059;-84
2021/01/29 00:47:09;;;;;;;18.58;11.38;;;;;;;-1.62;59.65;94028.00;4133217;28;20046;-83
2021/01/29 00:49:10;;;;;;;19.10;12.18;;;;;;;-1.61;59.16;94021.09;4122703;28;20074;-83
2021/01/29 00:51:12;;;;;;;24.80;13.45;;;;;;;-1.61;59.59;94009.09;4136360;28;20136;-84
2021/01/29 00:53:13;;;;;;;18.67;11.85;;;;;;;-1.61;59.83;94014.25;4136603;28;20050;-88
2021/01/29 00:55:16;;;;;;;20.13;13.32;;;;;;;-1.59;59.87;94020.09;4124338;28;20055;-83
2021/01/29 00:57:17;;;;;;;23.73;12.85;;;;;;;-1.61;60.16;94000.56;4150520;28;20081;-84
2021/01/29 00:59:18;;;;;;;23.08;14.32;;;;;;;-1.61;60.53;94023.66;4153365;28;21464;-83
2021/01/29 01:01:20;;;;;;;22.48;12.85;;;;;;;-1.57;60.23;94020.81;4139474;28;20104;-83
2021/01/29 01:03:21;;;;;;;19.40;12.60;;;;;;;-1.56;60.10;94009.59;4136330;28;20098;-82
2021/01/29 01:05:25;;;;;;;21.70;12.23;;;;;;;-1.53;59.94;94017.09;4126655;28;20101;-83
2021/01/29 01:07:26;;;;;;;20.85;12.52;;;;;;;-1.41;59.95;94010.31;4133352;28;20050;-84
2021/01/29 01:09:27;;;;;;;20.73;12.05;;;;;;;-1.39;59.77;94017.94;4141274;28;20053;-83
2021/01/29 01:11:28;;;;;;;20.27;11.65;;;;;;;-1.37;59.76;94004.03;4139986;28;20054;-83
2021/01/29 01:13:29;;;;;;;20.77;12.77;;;;;;;-1.34;60.14;94008.16;4139528;28;20101;-84
2021/01/29 01:15:30;;;;;;;21.40;12.43;;;;;;;-1.35;59.80;94011.66;4127788;28;20523;-84
2021/01/29 01:17:32;;;;;;;21.83;12.85;;;;;;;-1.40;59.97;94006.81;4156607;28;20068;-83
2021/01/29 01:19:37;;;;;;;20.85;12.48;;;;;;;-1.37;60.39;94004.03;4150616;28;20137;-82
2021/01/29 01:21:38;;;;;;;20.58;13.07;;;;;;;-1.40;60.29;94011.94;4149149;28;20057;-84
2021/01/29 01:23:39;;;;;;;20.25;12.35;;;;;;;-1.36;59.79;94000.53;4160237;28;20046;-81
2021/01/29 01:25:40;;;;;;;20.98;12.48;;;;;;;-1.37;59.92;93982.69;4140502;28;20065;-82
2021/01/29 01:27:41;;;;;;;18.65;12.55;;;;;;;-1.39;60.05;93985.34;4135428;28;20042;-82
2021/01/29 01:29:43;;;;;;;21.88;11.70;;;;;;;-1.39;60.18;93981.97;4155555;28;20053;-83
2021/01/29 01:31:44;;;;;;;21.23;12.20;;;;;;;-1.36;60.41;93966.31;4143334;28;20549;-83
2021/01/29 01:33:45;;;;;;;19.55;11.93;;;;;;;-1.29;60.36;93968.38;4137325;28;20133;-82
2021/01/29 01:35:46;;;;;;;16.35;11.80;;;;;;;-1.31;60.05;93961.72;4124374;28;20074;-83
2021/01/29 01:37:48;;;;;;;19.42;11.45;;;;;;;-1.27;59.97;93956.25;4125793;28;20104;-84
2021/01/29 01:39:50;;;;;;;18.98;10.90;;;;;;;-1.25;60.04;93954.38;4137431;28;20050;-82
2021/01/29 01:41:52;;;;;;;18.33;11.15;;;;;;;-1.27;59.46;93945.13;4124141;28;20046;-82
2021/01/29 01:43:53;;;;;;;19.58;11.40;;;;;;;-1.33;59.63;93940.44;4134998;28;20635;-83
2021/01/29 01:45:56;;;;;;;16.52;10.07;;;;;;;-1.43;59.94;93935.09;4121186;28;20097;-83
2021/01/29 01:48:12;;;;;;;20.40;11.40;;;;;;;-1.38;59.90;93939.91;4128047;28;20499;-82
2021/01/29 01:50:17;;;;;;;22.17;11.63;;;;;;;-1.53;60.33;93954.63;4143650;28;20056;-82
2021/01/29 01:52:24;;;;;;;18.02;11.25;;;;;;;-1.54;60.03;93947.84;4142698;28;20081;-84
2021/01/29 01:54:36;;;;;;;16.85;11.48;;;;;;;-1.45;59.90;93950.59;4126478;28;20047;-81
2021/01/29 01:56:47;;;;;;;17.73;10.63;;;;;;;-1.45;60.59;93947.22;4138663;28;20085;-81
2021/01/29 01:58:54;;;;;;;20.27;10.13;;;;;;;-1.48;59.74;93942.31;4135679;28;20046;-81
2021/01/29 02:00:55;;;;;;;19.73;11.98;;;;;;;-1.59;60.68;93939.63;4139072;28;20075;-83
2021/01/29 02:03:01;;;;;;;17.20;11.00;;;;;;;-2.04;60.98;93959.75;4136974;28;20548;-85
2021/01/29 02:05:06;;;;;;;18.90;11.10;;;;;;;-2.14;61.92;93950.13;4136248;28;20483;-81
2021/01/29 02:07:22;;;;;;;16.50;11.20;;;;;;;-1.95;62.32;93939.47;4120151;28;20065;-83
2021/01/29 02:09:24;;;;;;;20.13;10.88;;;;;;;-1.79;61.47;93946.94;4137967;28;20054;-82
2021/01/29 02:11:26;;;;;;;19.70;11.80;;;;;;;-1.65;61.40;93944.28;4138003;28;20069;-81
2021/01/29 02:13:28;;;;;;;17.60;10.48;;;;;;;-1.58;60.84;93954.13;4139279;28;20065;-81
2021/01/29 02:15:32;;;;;;;19.48;10.88;;;;;;;-1.80;60.44;93945.31;4155451;28;20057;-82
2021/01/29 02:17:50;;;;;;;19.63;11.57;;;;;;;-2.26;62.45;93950.91;4163036;28;20025;-82
2021/01/29 02:20:27;;;;;;;24.13;11.63;;;;;;;-2.18;62.64;93964.06;4144134;28;20046;-83
2021/01/29 02:22:32;;;;;;;21.10;11.48;;;;;;;-2.11;62.76;93937.09;4132385;28;20137;-84
2021/01/29 02:24:40;;;;;;;;;;;;;;;-2.05;62.75;93930.72;4136153;28;20057;-83
2021/01/29 02:26:53;;;;;;;18.02;10.70;;;;;;;-1.90;61.99;93932.25;4148201;28;19921;-82
2021/01/29 02:29:15;;;;;;;18.23;11.05;;;;;;;-2.08;61.90;93944.59;4122199;28;20063;-83
2021/01/29 02:31:53;;;;;;;18.95;10.65;;;;;;;-2.08;61.80;93930.94;4131346;28;20759;-81
2021/01/29 02:34:28;;;;;;;17.92;10.65;;;;;;;-1.84;61.76;93933.59;4134240;28;20051;-69
2021/01/29 02:36:51;;;;;;;19.23;11.50;;;;;;;-1.71;61.65;93936.97;4130572;28;20053;-70
2021/01/29 02:39:14;;;;;;;19.83;10.73;;;;;;;-1.60;61.96;93920.84;4118230;28;20207;-70
2021/01/29 02:41:17;;;;;;;19.75;10.30;;;;;;;-1.55;60.78;93923.09;4132016;28;20042;-70
2021/01/29 02:43:50;;;;;;;19.30;10.10;;;;;;;-1.47;60.97;93920.81;4132589;28;20054;-70
2021/01/29 02:45:55;;;;;;;18.27;9.85;;;;;;;-1.37;61.50;93914.13;4120708;28;20456;-71
2021/01/29 02:48:23;;;;;;;16.50;10.52;;;;;;;-1.42;60.53;93911.03;4117287;28;20171;-69
2021/01/29 02:50:56;;;;;;;19.90;10.15;;;;;;;-1.42;60.64;93915.34;4128222;28;20491;-71
2021/01/29 02:53:03;;;;;;;15.32;9.05;;;;;;;-1.43;61.34;93908.59;4112776;28;20118;-71
2021/01/29 02:55:23;;;;;;;18.55;9.90;;;;;;;-1.47;60.75;93903.66;4123423;28;20125;-69
2021/01/29 02:57:56;;;;;;;15.70;9.68;;;;;;;-1.52;60.77;93892.06;4121939;28;20050;-69
2021/01/29 03:00:09;;;;;;;16.88;10.27;;;;;;;-1.46;61.47;93909.63;4118403;28;20053;-70
2021/01/29 03:02:15;;;;;;;16.17;10.32;;;;;;;-1.39;61.22;93887.72;4136856;28;20715;-71
2021/01/29 03:04:27;;;;;;;19.77;10.95;;;;;;;-1.37;61.50;93877.34;4128440;28;20042;-70
2021/01/29 03:06:52;;;;;;;19.02;11.57;;;;;;;-1.30;61.49;93888.81;4097616;28;20461;-70
2021/01/29 03:09:16;;;;;;;23.63;12.88;;;;;;;-1.28;61.20;93881.81;4143429;28;20064;-70
2021/01/29 03:11:21;;;;;;;21.42;11.75;;;;;;;-1.30;61.17;93889.63;4132612;28;20062;-70
2021/01/29 03:13:28;;;;;;;21.98;12.00;;;;;;;-1.26;60.89;93880.78;4144307;28;20054;-83
2021/01/29 03:15:36;;;;;;;18.55;11.85;;;;;;;-1.25;61.49;93889.31;4138571;28;20050;-84
2021/01/29 03:17:41;;;;;;;21.15;11.88;;;;;;;-1.22;61.59;93896.81;4135612;28;20498;-83
2021/01/29 03:20:10;;;;;;;17.23;10.77;;;;;;;-1.20;61.19;93883.88;4141256;28;20145;-83
2021/01/29 03:22:17;;;;;;;21.55;12.00;;;;;;;-1.21;61.25;93888.16;4128438;28;20050;-82
2021/01/29 03:24:23;;;;;;;20.98;11.52;;;;;;;-1.18;61.32;93887.13;4138589;28;20617;-83
2021/01/29 03:26:28;;;;;;;18.30;11.80;;;;;;;-1.26;60.47;93896.19;4139472;28;20050;-81
2021/01/29 03:28:34;;;;;;;17.63;11.27;;;;;;;-1.29;61.10;93886.16;4134164;28;20126;-82
2021/01/29 03:30:39;;;;;;;18.75;11.57;;;;;;;-1.35;61.24;93876.28;4133287;28;20129;-83
2021/01/29 03:32:41;;;;;;;18.52;11.75;;;;;;;-1.33;60.64;93863.34;4119758;28;20163;-81
2021/01/29 03:34:51;;;;;;;18.33;11.30;;;;;;;-1.27;61.41;93862.88;4129182;28;20439;-83
2021/01/29 03:36:59;;;;;;;17.80;11.32;;;;;;;-1.24;61.63;93858.38;4125339;28;20051;-83
2021/01/29 03:39:09;;;;;;;16.42;10.52;;;;;;;-1.26;61.04;93854.28;4147198;28;20053;-83
2021/01/29 03:41:29;;;;;;;21.20;12.23;;;;;;;-1.34;61.40;93857.38;4138417;28;20086;-82
2021/01/29 03:43:32;;;;;;;21.10;11.50;;;;;;;-1.31;61.20;93866.63;4136955;28;20053;-84
2021/01/29 03:45:53;;;;;;;18.52;11.00;;;;;;;-1.25;61.47;93876.44;4135793;28;20050;-83
2021/01/29 03:48:16;;;;;;;19.02;10.95;;;;;;;-1.16;61.38;93860.41;4108268;28;20093;-85
2021/01/29 03:50:40;;;;;;;20.13;11.32;;;;;;;-1.28;61.25;93861.25;4128473;28;20463;-83
2021/01/29 03:53:11;;;;;;;18.98;11.82;;;;;;;-1.30;60.82;93861.38;4133877;28;20073;-83
2021/01/29 03:55:38;;;;;;;18.42;11.88;;;;;;;-1.43;61.50;93873.44;4128123;28;20562;-85
2021/01/29 03:57:46;;;;;;;22.55;12.02;;;;;;;-1.43;62.38;93891.41;4137448;28;20057;-84
2021/01/29 04:00:03;;;;;;;23.20;12.07;;;;;;;-1.41;62.05;93881.84;4128998;28;20046;-70
2021/01/29 04:02:28;;;;;;;24.98;12.93;;;;;;;-1.44;62.63;93879.53;4145095;28;20062;-70
2021/01/29 04:04:38;;;;;;;23.17;12.85;;;;;;;-1.47;63.38;93869.44;4132312;28;20508;-70
2021/01/29 04:06:51;;;;;;;23.67;12.75;;;;;;;-1.55;63.66;93866.56;4140558;28;20050;-71
2021/01/29 04:08:55;;;;;;;20.63;13.27;;;;;;;-1.51;64.53;93875.72;4121202;28;20061;-69
2021/01/29 04:10:58;;;;;;;20.67;12.30;;;;;;;-1.61;64.93;93864.44;4130532;28;20050;-69
2021/01/29 04:13:18;;;;;;;21.52;12.60;;;;;;;-1.71;64.97;93864.25;4144462;28;20482;-70
2021/01/29 04:15:26;;;;;;;20.98;12.48;;;;;;;-1.63;65.71;93868.84;4126394;28;20104;-70
2021/01/29 04:17:54;;;;;;;21.42;12.60;;;;;;;-1.52;65.17;93887.75;4127733;28;20061;-71
2021/01/29 04:20:00;;;;;;;21.00;12.57;;;;;;;-1.45;64.96;93878.69;4127061;28;20423;-70
2021/01/29 04:22:14;;;;;;;19.13;11.32;;;;;;;-1.38;65.04;93871.34;4116925;28;20073;-70
2021/01/29 04:24:38;;;;;;;20.20;10.82;;;;;;;-1.31;64.61;93877.72;4115035;28;20054;-71
2021/01/29 04:26:44;;;;;;;19.25;11.27;;;;;;;-1.29;64.66;93875.88;4126073;28;20512;-70
2021/01/29 04:28:48;;;;;;;20.08;11.90;;;;;;;-1.28;64.91;93871.53;4143285;28;20057;-70
2021/01/29 04:30:51;;;;;;;20.83;11.38;;;;;;;-1.24;64.87;93876.34;4134810;28;20130;-71
2021/01/29 04:32:58;;;;;;;19.85;11.35;;;;;;;-1.25;64.88;93887.56;4146728;28;20050;-69
2021/01/29 04:35:00;;;;;;;18.73;10.77;;;;;;;-1.29;65.29;93850.19;4137723;28;20173;-70
2021/01/29 04:37:04;;;;;;;16.15;10.23;;;;;;;-1.42;65.42;93881.97;4124993;28;20055;-69
2021/01/29 04:39:11;;;;;;;18.77;11.40;;;;;;;-1.52;67.59;93866.38;4130780;28;20116;-70
2021/01/29 04:41:30;;;;;;;18.10;10.27;;;;;;;-1.35;66.12;93854.94;4135957;28;20058;-72
2021/01/29 04:43:45;;;;;;;17.17;10.27;;;;;;;-1.33;65.70;93871.88;4136528;28;20054;-70
2021/01/29 04:46:05;;;;;;;16.00;9.68;;;;;;;-1.34;65.59;93888.19;4127898;28;20517;-69
2021/01/29 04:48:18;;;;;;;17.85;11.32;;;;;;;-1.23;65.34;93892.59;4130571;28;20053;-71
2021/01/29 04:50:54;;;;;;;14.55;9.73;;;;;;;-1.18;65.79;93872.53;4130718;28;20054;-71
2021/01/29 04:53:10;;;;;;;15.55;10.43;;;;;;;-1.09;65.12;93892.44;4124860;28;20050;-70
2021/01/29 04:55:17;;;;;;;15.80;9.35;;;;;;;-1.05;65.31;93895.63;4128104;28;20074;-70
2021/01/29 04:57:24;;;;;;;17.70;10.15;;;;;;;-1.03;65.17;93888.63;4127288;28;20069;-70
2021/01/29 04:59:45;;;;;;;14.07;9.38;;;;;;;-0.97;64.90;93870.16;4147648;28;20054;-70
2021/01/29 05:02:28;;;;;;;15.98;9.95;;;;;;;-1.07;65.08;93875.16;4117695;28;20458;-72
2021/01/29 05:04:57;;;;;;;16.23;10.23;;;;;;;-1.05;65.04;93881.00;4097209;29;20122;-70
2021/01/29 05:07:26;;;;;;;13.50;9.43;;;;;;;-1.03;65.21;93873.19;4112429;28;20054;-69
2021/01/29 05:09:58;;;;;;;15.25;10.10;;;;;;;-0.98;65.00;93873.69;4131707;28;20063;-71
2021/01/29 05:12:24;;;;;;;18.00;11.00;;;;;;;-0.98;65.25;93860.00;4122871;28;20050;-71
2021/01/29 05:14:47;;;;;;;16.05;9.30;;;;;;;-1.07;64.94;93875.16;4136633;28;20049;-70
2021/01/29 05:17:11;;;;;;;16.50;10.05;;;;;;;-1.06;64.99;93857.97;4143776;28;20054;-71
2021/01/29 05:19:40;;;;;;;16.63;10.55;;;;;;;-1.02;65.39;93882.53;4130746;28;20069;-72
2021/01/29 05:22:03;;;;;;;16.60;10.57;;;;;;;-0.97;64.49;93862.47;4130241;28;20049;-72
2021/01/29 05:24:07;;;;;;;17.13;10.57;;;;;;;-1.07;64.65;93870.03;4126456;28;20069;-73
2021/01/29 05:26:12;;;;;;;18.05;10.38;;;;;;;-1.04;63.89;93880.06;4122741;28;20054;-69
2021/01/29 05:28:50;;;;;;;18.15;10.38;;;;;;;-1.23;63.85;93884.88;4131463;28;20414;-70
2021/01/29 05:31:19;;;;;;;18.15;10.45;;;;;;;-1.12;64.52;93902.09;4111515;28;20057;-70
2021/01/29 05:33:45;;;;;;;18.13;10.43;;;;;;;-1.11;64.55;93898.63;4126634;28;20046;-71
2021/01/29 05:36:02;;;;;;;17.58;10.57;;;;;;;-1.03;64.43;93896.34;4117504;28;20079;-71
2021/01/29 05:38:28;;;;;;;16.83;10.15;;;;;;;-0.99;64.31;93892.63;4122063;28;20408;-69
2021/01/29 05:40:42;;;;;;;18.08;10.43;;;;;;;-1.07;64.17;93898.28;4114489;28;20143;-70
2021/01/29 05:43:11;;;;;;;29.83;17.05;;;;;;;-1.01;64.20;93899.63;4117821;28;20053;-69
2021/01/29 05:45:31;;;;;;;24.20;14.40;;;;;;;-1.15;64.56;93897.19;4140373;28;20046;-70
2021/01/29 05:47:41;;;;;;;19.52;10.73;;;;;;;-1.06;63.87;93871.66;4121656;28;20066;-70
2021/01/29 05:50:01;;;;;;;19.70;11.55;;;;;;;-1.08;64.74;93898.41;4121532;28;20260;-71
2021/01/29 05:52:24;;;;;;;16.58;9.90;;;;;;;-1.01;63.86;93891.91;4129780;28;20054;-71
2021/01/29 05:54:42;;;;;;;18.65;10.57;;;;;;;-0.98;63.70;93901.97;4127564;28;20043;-71
2021/01/29 05:57:13;;;;;;;20.85;12.00;;;;;;;-0.93;64.31;93894.72;4119223;28;20436;-71
2021/01/29 05:59:32;;;;;;;16.52;10.73;;;;;;;-0.91;63.89;93897.19;4102404;28;20464;-70
2021/01/29 06:01:45;;;;;;;15.75;10.90;;;;;;;-0.98;64.33;93926.84;4140748;28;20045;-71
2021/01/29 06:04:12;;;;;;;20.70;11.13;;;;;;;-1.12;64.64;93912.41;4132937;28;20082;-71
2021/01/29 06:06:45;;;;;;;18.70;11.07;;;;;;;-1.06;65.22;93945.38;4117737;28;20054;-72
2021/01/29 06:09:10;;;;;;;23.27;14.38;;;;;;;-1.04;65.73;93899.81;4122297;28;20056;-71
2021/01/29 06:11:26;;;;;;;19.75;11.52;;;;;;;-1.05;65.75;93929.03;4132716;28;20058;-73
2021/01/29 06:13:58;;;;;;;14.93;10.10;;;;;;;-1.08;65.41;93914.63;4129794;28;20470;-72
2021/01/29 06:16:18;;;;;;;18.60;10.95;;;;;;;-1.14;65.89;93909.94;4124162;28;20054;-74
2021/01/29 06:18:28;;;;;;;18.55;10.55;;;;;;;-1.10;65.74;93911.38;4130223;28;20050;-71
2021/01/29 06:20:56;;;;;;;15.10;10.65;;;;;;;-1.08;66.02;93912.06;4129948;28;20518;-71
2021/01/29 06:23:12;;;;;;;14.65;10.13;;;;;;;-0.98;65.30;93914.81;4131196;28;20058;-73
2021/01/29 06:25:22;;;;;;;21.48;10.30;;;;;;;-0.87;64.96;93916.63;4127810;28;20081;-70
2021/01/29 06:27:48;;;;;;;21.77;11.30;;;;;;;-0.87;65.37;93911.47;4107981;28;20502;-74
2021/01/29 06:30:23;;;;;;;15.50;9.95;;;;;;;-0.77;64.46;93915.03;4115790;28;20129;-72
2021/01/29 06:32:47;;;;;;;13.88;9.57;;;;;;;-0.83;64.42;93948.91;4120053;28;20064;-72
2021/01/29 06:34:55;;;;;;;13.20;9.25;;;;;;;-0.85;64.26;93915.56;4122797;28;20086;-71
2021/01/29 06:37:53;;;;;;;17.48;10.20;;;;;;;-0.78;64.52;93936.53;4127859;28;20078;-71
2021/01/29 06:40:04;;;;;;;16.67;9.88;;;;;;;-0.80;64.62;93932.44;4127553;28;20046;-71
2021/01/29 06:42:18;;;;;;;16.00;9.80;;;;;;;-0.80;64.84;93922.16;4115661;28;20051;-71
2021/01/29 06:44:19;;;;;;;;;;;;;;;-0.72;64.47;93935.28;4100234;28;20047;-72
2021/01/29 06:46:39;;;;;;;17.70;9.50;;;;;;;-0.60;64.45;93934.41;4134362;28;19925;-71
2021/01/29 06:48:50;;;;;;;16.88;10.60;;;;;;;-0.50;64.37;93926.84;4145521;28;20053;-72
2021/01/29 06:51:25;;;;;;;17.60;10.20;;;;;;;-0.40;64.07;93950.16;4129752;28;20050;-72
2021/01/29 06:53:49;;;;;;;16.40;10.68;;;;;;;-0.35;63.79;93914.59;4137128;28;20134;-71
2021/01/29 06:56:08;;;;;;;16.35;11.30;;;;;;;-0.26;64.47;93945.66;4128751;28;20065;-74
2021/01/29 06:58:35;;;;;;;16.55;10.13;;;;;;;-0.46;64.30;93939.34;4130611;28;20458;-74
2021/01/29 07:01:01;;;;;;;17.33;10.60;;;;;;;-0.38;64.65;93928.53;4135805;28;20046;-74
2021/01/29 07:03:24;;;;;;;15.90;9.75;;;;;;;-0.48;64.25;93963.56;4129030;28;20519;-73
2021/01/29 07:05:43;;;;;;;17.73;9.65;;;;;;;-0.58;64.27;93957.44;4139713;28;20542;-74
2021/01/29 07:07:54;;;;;;;17.75;10.10;;;;;;;-0.52;64.07;93942.38;4130201;28;20062;-70
2021/01/29 07:10:04;;;;;;;19.02;10.30;;;;;;;-0.38;64.06;93963.75;4126866;28;20415;-73
2021/01/29 07:12:16;;;;;;;14.95;10.48;;;;;;;-0.26;63.86;93949.94;4129260;28;20054;-72
2021/01/29 07:14:23;;;;;;;17.48;11.00;;;;;;;-0.21;64.70;93951.28;4103376;28;20058;-74
2021/01/29 07:16:43;;;;;;;17.27;10.95;;;;;;;-0.06;64.73;93938.22;4125227;28;20081;-72
2021/01/29 07:19:24;;;;;;;20.67;10.77;;;;;;;0.03;63.91;93955.53;4116043;28;20341;-73
2021/01/29 07:21:43;;;;;;;16.52;10.38;;;;;;;0.05;63.26;93929.69;4127866;28;20113;-72
2021/01/29 07:23:53;;;;;;;14.75;9.77;;;;;;;0.08;63.62;93929.44;4127927;28;20133;-73
2021/01/29 07:26:13;;;;;;;17.60;11.23;;;;;;;0.04;63.71;93953.78;4128674;28;20050;-74
2021/01/29 07:28:46;;;;;;;16.70;10.55;;;;;;;-0.43;65.89;93964.03;4129198;28;20046;-72
2021/01/29 07:30:53;;;;;;;15.15;10.02;;;;;;;-0.31;66.27;93970.06;4115956;28;20054;-72
2021/01/29 07:33:29;;;;;;;17.33;10.50;;;;;;;-0.18;65.66;93957.94;4130322;28;20065;-69
2021/01/29 07:35:38;;;;;;;15.15;9.75;;;;;;;-0.01;65.42;93951.56;4114254;28;20511;-71
2021/01/29 07:38:07;;;;;;;14.32;9.57;;;;;;;0.10;65.13;93958.47;4130419;28;20050;-71
2021/01/29 07:40:22;;;;;;;18.55;10.15;;;;;;;0.22;64.63;93942.13;4131527;28;20651;-73
2021/01/29 07:43:02;;;;;;;14.73;9.98;;;;;;;0.35;64.25;93940.25;4127194;28;20076;-72
2021/01/29 07:45:18;;;;;;;14.02;9.77;;;;;;;0.43;64.59;93946.56;4126602;28;20054;-72
2021/01/29 07:47:47;;;;;;;16.42;10.55;;;;;;;0.49;63.85;93953.84;4127991;28;20109;-72
2021/01/29 07:49:58;;;;;;;17.20;10.80;;;;;;;0.56;64.09;93934.38;4120644;28;20070;-73
2021/01/29 07:52:14;;;;;;;15.95;10.27;;;;;;;0.76;64.04;93930.28;4127229;28;20112;-72
2021/01/29 07:54:27;;;;;;;20.60;10.85;;;;;;;0.91;64.08;93944.56;4125934;28;20050;-73
2021/01/29 07:57:15;;;;;;;18.20;10.30;;;;;;;0.99;63.16;93933.63;4119763;28;20468;-73
2021/01/29 07:59:19;;;;;;;18.90;12.18;;;;;;;0.93;63.22;93927.22;4111236;28;20054;-72
2021/01/29 08:01:30;;;;;;;18.92;10.70;;;;;;;1.00;63.44;93933.53;4140319;28;20054;-73
2021/01/29 08:03:53;;;;;;;16.02;10.35;;;;;;;1.16;63.10;93925.41;4131388;28;20691;-71
2021/01/29 08:06:09;;;;;;;13.50;10.40;;;;;;;1.18;63.28;93925.28;4142149;28;20058;-72
2021/01/29 08:08:17;;;;;;;18.80;11.68;;;;;;;1.23;62.67;93924.00;4141231;28;20043;-73
2021/01/29 08:10:24;;;;;;;17.77;11.18;;;;;;;1.31;62.23;93914.81;4131103;28;20050;-73
2021/01/29 08:12:27;;;;;;;22.08;12.65;;;;;;;1.21;62.21;93935.38;4132363;28;20046;-71
2021/01/29 08:14:53;;;;;;;21.48;11.98;;;;;;;1.00;62.63;93940.44;4130317;28;20054;-73
2021/01/29 08:17:08;;;;;;;17.77;10.27;;;;;;;1.11;62.61;93930.09;4131267;28;20098;-72
2021/01/29 08:19:13;;;;;;;14.65;9.90;;;;;;;1.26;62.36;93943.56;4138266;28;20405;-71
2021/01/29 08:21:42;;;;;;;15.55;10.73;;;;;;;1.23;62.13;93949.78;4135581;28;20046;-72
2021/01/29 08:24:03;;;;;;;18.75;10.52;;;;;;;1.37;62.24;93955.63;4126669;28;20051;-74
2021/01/29 08:26:29;;;;;;;15.95;10.38;;;;;;;1.29;62.19;93956.25;4136072;28;20050;-73
2021/01/29 08:28:45;;;;;;;15.27;10.70;;;;;;;1.24;62.17;93966.09;4139609;28;20046;-74
2021/01/29 08:30:50;;;;;;;17.73;10.55;;;;;;;1.28;62.69;93954.59;4134932;28;20046;-86
2021/01/29 08:33:06;;;;;;;18.23;11.20;;;;;;;1.32;62.62;93962.91;4143911;28;20087;-85
2021/01/29 08:35:07;;;;;;;16.70;11.52;;;;;;;1.22;62.90;93968.78;4145230;28;20053;-89
2021/01/29 08:37:27;;;;;;;21.75;11.68;;;;;;;1.34;62.78;93966.19;4144801;28;20050;-84
2021/01/29 08:39:32;;;;;;;17.33;11.43;;;;;;;1.50;63.02;93965.78;4143240;28;20054;-85
2021/01/29 08:42:01;;;;;;;14.80;10.70;;;;;;;1.60;62.59;93987.34;4142553;28;20165;-85
2021/01/29 08:44:11;;;;;;;16.13;10.57;;;;;;;1.72;61.88;93983.78;4144862;28;20069;-84
2021/01/29 08:46:35;;;;;;;18.45;11.68;;;;;;;1.53;62.44;93981.84;4146193;28;20133;-85
2021/01/29 08:49:05;;;;;;;19.73;12.13;;;;;;;1.56;63.02;93967.88;4144815;28;20050;-86
2021/01/29 08:51:23;;;;;;;18.00;11.13;;;;;;;1.64;62.86;93962.94;4145268;28;20054;-85
2021/01/29 08:53:55;;;;;;;18.52;11.00;;;;;;;1.64;62.84;93976.66;4140879;28;20534;-71
2021/01/29 08:56:24;;;;;;;18.50;11.18;;;;;;;1.61;63.45;93971.75;4130527;28;20054;-75
2021/01/29 08:59:02;;;;;;;20.38;11.82;;;;;;;1.64;63.53;93976.66;4123952;28;20043;-74
2021/01/29 09:01:25;;;;;;;17.13;11.02;;;;;;;1.71;63.41;93973.56;4141020;28;20057;-72
2021/01/29 09:03:36;;;;;;;17.05;12.15;;;;;;;1.74;64.27;93974.16;4121697;28;20109;-75
2021/01/29 09:05:41;;;;;;;22.40;12.48;;;;;;;1.81;64.48;93979.66;4122083;28;20106;-72
2021/01/29 09:07:43;;;;;;;16.05;11.80;;;;;;;1.94;63.12;93998.38;4127280;28;20104;-73
2021/01/29 09:09:44;;;;;;;22.52;11.77;;;;;;;2.10;62.87;93989.38;4129679;28;20054;-72
2021/01/29 09:11:50;;;;;;;14.60;10.40;;;;;;;2.17;62.17;93995.66;4132135;28;20050;-74
2021/01/29 09:13:53;;;;;;;;;;;;;;;2.16;61.55;93992.28;4124527;28;20774;-72
2021/01/29 09:16:07;;;;;;;20.00;12.27;;;;;;;2.14;62.22;93964.91;4125562;28;19932;-73
2021/01/29 09:18:24;;;;;;;20.45;11.50;;;;;;;2.16;62.24;93963.03;4130458;28;20054;-71
2021/01/29 09:20:28;;;;;;;21.63;12.27;;;;;;;2.17;62.34;93962.06;4120021;28;20109;-72
2021/01/29 09:22:51;;;;;;;19.85;11.95;;;;;;;2.20;61.71;93967.00;4106937;28;20387;-73
2021/01/29 09:24:55;;;;;;;21.30;12.48;;;;;;;2.24;63.08;93968.41;4128734;28;20050;-72
2021/01/29 09:27:05;;;;;;;20.80;12.77;;;;;;;2.32;62.10;93965.97;4132905;28;20108;-73
2021/01/29 09:29:21;;;;;;;18.00;12.60;;;;;;;2.31;62.30;93955.78;4126195;28;20082;-74
2021/01/29 09:31:27;;;;;;;21.52;13.38;;;;;;;2.09;61.71;93942.06;4126513;28;20070;-71
2021/01/29 09:33:34;;;;;;;21.67;12.98;;;;;;;2.05;62.69;93951.81;4120717;28;20480;-72
2021/01/29 09:35:54;;;;;;;63.05;34.78;;;;;;;2.04;62.95;93978.59;4131393;28;20038;-73
2021/01/29 09:37:56;;;;;;;23.05;12.00;;;;;;;1.98;62.62;93934.34;4125571;28;20055;-74
2021/01/29 09:40:01;;;;;;;21.13;12.48;;;;;;;2.07;62.49;93936.19;4129257;28;20065;-70
2021/01/29 09:42:06;;;;;;;20.33;12.13;;;;;;;2.10;62.83;93932.53;4129054;28;20286;-73
2021/01/29 09:44:44;;;;;;;20.15;13.18;;;;;;;2.00;62.78;93937.63;4130200;28;20438;-72
2021/01/29 09:46:46;;;;;;;21.08;12.75;;;;;;;2.01;63.52;93940.09;4121518;28;20324;-73
2021/01/29 09:48:50;;;;;;;18.92;11.93;;;;;;;2.15;62.96;93940.72;4113893;28;20054;-72
2021/01/29 09:51:02;;;;;;;;;;;;;;;2.22;63.39;93942.66;4127313;28;20054;-71
2021/01/29 09:53:06;;;;;;;22.27;12.13;;;;;;;2.21;62.79;93940.19;4117801;28;20230;-72
2021/01/29 09:55:16;;;;;;;;;;;;;;;2.20;62.72;93939.41;4123083;28;20094;-71
2021/01/29 09:57:41;;;;;;;21.05;13.48;;;;;;;1.97;63.33;93945.63;4109525;28;20396;-72
2021/01/29 10:00:08;;;;;;;22.55;14.23;;;;;;;2.06;63.90;93931.94;4118127;28;20050;-72
2021/01/29 10:03:04;;;;;;;20.83;13.80;;;;;;;2.01;63.43;93919.41;4137327;28;20057;-83
2021/01/29 10:05:27;;;;;;;22.55;14.48;;;;;;;1.97;64.78;93907.69;4121322;28;20053;-73
2021/01/29 10:07:30;;;;;;;34.58;18.23;;;;;;;1.87;64.91;93930.06;4131482;28;20484;-73
2021/01/29 10:09:34;;;;;;;102.45;38.35;;;;;;;1.74;65.09;93921.69;4131810;28;20061;-72
2021/01/29 10:12:14;;;;;;;30.25;16.95;;;;;;;1.66;65.76;93944.72;4128906;28;20496;-73
2021/01/29 10:14:16;;;;;;;77.43;31.27;;;;;;;1.61;65.78;93914.94;4123546;28;20058;-72
2021/01/29 10:16:23;;;;;;;25.73;15.10;;;;;;;1.36;66.58;93923.03;4128263;28;20054;-71
2021/01/29 10:18:26;;;;;;;35.95;19.13;;;;;;;1.63;67.07;93920.81;4132809;28;20080;-73